Time;durP1;ratioP1;P1;durP2;ratioP2;P2;SDS_P1;SDS_P2;PMS_P1;PMS_P2;Temp;Humidity;BMP_temperature;BMP_pressure;BME280_temperature;BME280_humidity;BME280_pressure;Samples;Min_cycle;Max_cycle;Signal;HPM_P1;HPM_P2
2023/05/30 00:00:10;;;;;;;10.60;2.90;;;13.90;63.60;;;;;;2091054;28;20040;-72
2023/05/30 00:01:13;;;;;;;10.55;3.03;;;13.90;63.70;;;;;;2091922;28;20024;-71
2023/05/30 00:02:13;;;;;;;9.85;2.83;;;13.80;63.30;;;;;;2092023;28;20519;-71
2023/05/30 00:03:18;;;;;;;12.20;2.65;;;13.80;63.70;;;;;;2093375;28;20357;-71
2023/05/30 00:04:20;;;;;;;10.07;3.05;;;13.80;63.60;;;;;;2092369;28;20033;-72
2023/05/30 00:05:20;;;;;;;13.65;2.83;;;13.80;63.90;;;;;;2092708;28;20430;-72
2023/05/30 00:06:21;;;;;;;11.98;2.38;;;13.80;64.10;;;;;;2092347;28;20151;-72
2023/05/30 00:07:22;;;;;;;10.48;2.67;;;13.80;64.40;;;;;;2093078;28;20046;-72
2023/05/30 00:08:22;;;;;;;7.82;2.60;;;13.70;64.20;;;;;;2092910;28;20021;-71
2023/05/30 00:09:23;;;;;;;12.60;2.95;;;13.70;64.40;;;;;;2091616;28;20032;-71
2023/05/30 00:10:24;;;;;;;10.35;2.85;;;13.70;64.50;;;;;;2084513;28;20060;-71
2023/05/30 00:11:30;;;;;;;9.10;2.78;;;13.70;64.20;;;;;;2091425;28;20491;-71
2023/05/30 00:12:31;;;;;;;7.97;2.28;;;13.70;64.20;;;;;;2092937;28;20024;-72
2023/05/30 00:13:32;;;;;;;9.82;2.72;;;13.70;64.70;;;;;;2091404;28;20010;-72
2023/05/30 00:14:33;;;;;;;9.20;3.25;;;13.70;65.60;;;;;;2093920;28;20046;-71
2023/05/30 00:15:33;;;;;;;9.35;3.03;;;13.60;64.80;;;;;;2093020;28;20047;-71
2023/05/30 00:16:35;;;;;;;12.68;2.75;;;13.60;65.20;;;;;;2094666;28;20021;-71
2023/05/30 00:17:36;;;;;;;10.73;3.10;;;13.60;65.40;;;;;;2095592;28;20027;-71
2023/05/30 00:18:40;;;;;;;13.05;2.70;;;13.50;65.40;;;;;;2092687;28;20088;-71
2023/05/30 00:19:40;;;;;;;8.35;2.38;;;13.50;65.20;;;;;;2092261;28;20021;-71
2023/05/30 00:20:44;;;;;;;11.10;2.90;;;13.50;65.40;;;;;;2091250;28;20036;-71
2023/05/30 00:21:54;;;;;;;8.90;2.60;;;13.50;65.70;;;;;;2092357;28;20055;-72
2023/05/30 00:23:00;;;;;;;8.32;2.63;;;13.40;65.70;;;;;;2092549;28;20017;-72
2023/05/30 00:24:02;;;;;;;7.72;2.30;;;13.40;66.10;;;;;;2091956;28;20020;-72
2023/05/30 00:25:04;;;;;;;8.73;2.15;;;13.40;65.70;;;;;;2092015;28;20496;-71
2023/05/30 00:26:08;;;;;;;10.90;2.72;;;13.40;65.80;;;;;;2093065;28;20054;-71
2023/05/30 00:27:09;;;;;;;14.13;3.30;;;13.40;66.80;;;;;;2091187;28;20082;-71
2023/05/30 00:28:10;;;;;;;9.77;2.97;;;13.40;66.30;;;;;;2092666;28;20657;-72
2023/05/30 00:29:11;;;;;;;9.23;2.53;;;13.40;66.40;;;;;;2091163;28;20013;-71
2023/05/30 00:30:12;;;;;;;11.15;2.83;;;13.40;66.50;;;;;;2092660;28;20032;-72
2023/05/30 00:31:13;;;;;;;11.05;2.55;;;13.30;66.50;;;;;;2091936;28;20020;-72
2023/05/30 00:32:14;;;;;;;10.32;2.90;;;13.30;66.50;;;;;;2090002;28;20028;-72
2023/05/30 00:33:14;;;;;;;12.98;3.63;;;13.30;66.60;;;;;;2092761;28;20023;-71
2023/05/30 00:34:15;;;;;;;12.93;3.58;;;13.30;66.50;;;;;;2093010;28;20024;-72
2023/05/30 00:35:15;;;;;;;10.82;2.80;;;13.30;66.60;;;;;;2091338;28;20112;-71
2023/05/30 00:36:16;;;;;;;11.43;3.97;;;13.30;66.90;;;;;;2094229;28;20025;-72
2023/05/30 00:37:17;;;;;;;14.65;3.45;;;13.30;67.60;;;;;;2093205;28;20025;-72
2023/05/30 00:38:17;;;;;;;7.63;2.75;;;13.30;67.10;;;;;;2093225;28;20028;-72
2023/05/30 00:39:18;;;;;;;10.63;3.40;;;13.30;67.20;;;;;;2092778;28;20074;-71
2023/05/30 00:40:19;;;;;;;10.95;2.50;;;13.30;67.10;;;;;;2093768;28;20107;-71
2023/05/30 00:41:19;;;;;;;12.00;2.88;;;13.30;67.10;;;;;;2092059;28;20025;-71
2023/05/30 00:42:20;;;;;;;10.20;2.95;;;13.30;67.20;;;;;;2092826;28;20024;-71
2023/05/30 00:43:22;;;;;;;8.10;2.67;;;13.30;67.00;;;;;;2091457;28;20498;-71
2023/05/30 00:44:22;;;;;;;7.90;2.30;;;13.30;67.00;;;;;;2090090;28;20444;-71
2023/05/30 00:45:23;;;;;;;12.27;2.90;;;13.20;66.80;;;;;;2093765;28;20032;-71
2023/05/30 00:46:25;;;;;;;9.95;2.40;;;13.20;67.00;;;;;;2092182;28;20468;-71
2023/05/30 00:47:26;;;;;;;9.35;2.88;;;13.20;66.90;;;;;;2092542;28;20017;-71
2023/05/30 00:48:27;;;;;;;11.77;2.88;;;13.20;67.30;;;;;;2092512;28;20033;-71
2023/05/30 00:49:27;;;;;;;7.30;2.45;;;13.20;67.40;;;;;;2091085;28;20021;-71
2023/05/30 00:50:30;;;;;;;9.02;2.58;;;13.20;67.20;;;;;;2089400;28;20094;-72
2023/05/30 00:51:32;;;;;;;8.15;2.28;;;13.20;67.10;;;;;;2092645;28;20086;-71
2023/05/30 00:52:33;;;;;;;9.75;2.42;;;13.20;67.10;;;;;;2090488;28;20024;-71
2023/05/30 00:53:34;;;;;;;8.63;2.20;;;13.20;67.70;;;;;;2091864;28;20039;-72
2023/05/30 00:54:36;;;;;;;10.43;2.38;;;13.20;67.80;;;;;;2092062;28;20469;-71
2023/05/30 00:55:36;;;;;;;6.95;2.53;;;13.20;67.90;;;;;;2090292;28;20024;-71
2023/05/30 00:56:37;;;;;;;7.63;2.38;;;13.10;67.00;;;;;;2091995;28;20016;-71
2023/05/30 00:57:39;;;;;;;9.98;2.65;;;13.20;67.00;;;;;;2091044;28;20017;-71
2023/05/30 00:58:40;;;;;;;11.75;2.33;;;13.20;67.20;;;;;;2090274;28;20572;-71
2023/05/30 00:59:42;;;;;;;10.35;2.65;;;13.20;67.00;;;;;;2093137;28;20384;-71
2023/05/30 01:00:43;;;;;;;11.52;2.80;;;13.10;67.00;;;;;;2091229;28;20386;-71
2023/05/30 01:01:45;;;;;;;12.18;3.13;;;13.10;67.30;;;;;;2094871;28;20315;-71
2023/05/30 01:02:48;;;;;;;8.80;2.35;;;13.10;67.40;;;;;;2093976;28;20024;-71
2023/05/30 01:03:50;;;;;;;13.38;2.90;;;13.10;67.30;;;;;;2092926;28;20020;-71
2023/05/30 01:04:51;;;;;;;10.95;2.92;;;13.10;68.10;;;;;;2092534;28;20024;-72
2023/05/30 01:05:51;;;;;;;8.73;3.00;;;13.10;68.20;;;;;;2092144;28;20024;-71
2023/05/30 01:06:53;;;;;;;14.68;3.03;;;13.10;68.30;;;;;;2089257;28;20019;-71
2023/05/30 01:07:54;;;;;;;9.13;2.85;;;13.10;69.00;;;;;;2092833;28;20744;-71
2023/05/30 01:08:58;;;;;;;15.77;3.05;;;13.00;68.60;;;;;;2091957;28;20091;-71
2023/05/30 01:10:00;;;;;;;9.52;2.75;;;13.00;68.70;;;;;;2092140;28;20016;-71
2023/05/30 01:11:15;;;;;;;10.95;3.00;;;13.00;69.20;;;;;;2090643;28;20073;-71
2023/05/30 01:12:33;;;;;;;10.73;2.80;;;13.00;70.00;;;;;;2094804;28;20026;-71
2023/05/30 01:13:48;;;;;;;9.57;3.30;;;12.90;69.10;;;;;;2091936;28;20029;-72
2023/05/30 01:15:13;;;;;;;8.80;2.58;;;12.90;69.00;;;;;;2084210;28;20035;-71
2023/05/30 01:16:18;;;;;;;8.52;2.67;;;12.90;69.30;;;;;;2087941;28;20072;-71
2023/05/30 01:17:31;;;;;;;14.98;3.53;;;12.80;68.50;;;;;;2091236;28;20032;-71
2023/05/30 01:18:40;;;;;;;11.00;3.15;;;12.90;69.90;;;;;;2090943;28;20048;-72
2023/05/30 01:19:55;;;;;;;9.93;2.65;;;12.80;70.60;;;;;;2091323;28;20048;-71
2023/05/30 01:20:59;;;;;;;12.07;2.72;;;12.80;70.60;;;;;;2091985;28;20044;-72
2023/05/30 01:22:16;;;;;;;9.18;2.97;;;12.80;70.00;;;;;;2092159;28;20022;-71
2023/05/30 01:23:38;;;;;;;9.18;3.10;;;12.80;70.10;;;;;;2092531;28;20021;-71
2023/05/30 01:24:48;;;;;;;11.57;3.35;;;12.80;70.60;;;;;;2090603;28;20079;-71
2023/05/30 01:26:03;;;;;;;10.18;2.65;;;12.70;70.50;;;;;;2092233;28;20132;-71
2023/05/30 01:27:34;;;;;;;8.30;2.50;;;12.70;71.40;;;;;;2090938;28;20039;-71
2023/05/30 01:28:37;;;;;;;14.82;3.35;;;12.70;71.00;;;;;;2090653;28;20073;-71
2023/05/30 01:29:41;;;;;;;9.82;2.65;;;12.70;70.60;;;;;;2091418;28;20013;-71
2023/05/30 01:30:46;;;;;;;7.10;2.30;;;12.70;70.60;;;;;;2095792;28;20044;-71
2023/05/30 01:31:47;;;;;;;12.52;2.72;;;12.70;70.30;;;;;;2084821;28;20032;-71
2023/05/30 01:32:48;;;;;;;14.13;3.40;;;12.70;70.70;;;;;;2094396;28;20078;-72
2023/05/30 01:33:50;;;;;;;15.25;2.92;;;12.70;71.40;;;;;;2092908;28;20021;-71
2023/05/30 01:34:50;;;;;;;11.90;3.40;;;12.70;71.90;;;;;;2092060;28;20132;-71
2023/05/30 01:35:51;;;;;;;10.73;2.80;;;12.70;72.30;;;;;;2090499;28;20033;-71
2023/05/30 01:36:52;;;;;;;10.55;2.90;;;12.60;71.70;;;;;;2091990;28;20021;-71
2023/05/30 01:37:52;;;;;;;8.98;2.70;;;12.60;71.60;;;;;;2090962;28;20166;-71
2023/05/30 01:38:53;;;;;;;11.77;2.72;;;12.60;72.00;;;;;;2092633;28;20016;-71
2023/05/30 01:39:53;;;;;;;9.35;2.50;;;12.60;72.10;;;;;;2088917;28;20412;-71
2023/05/30 01:40:58;;;;;;;10.70;2.50;;;12.60;71.10;;;;;;2089442;28;20083;-71
2023/05/30 01:42:20;;;;;;;10.07;2.80;;;12.60;71.70;;;;;;2090043;28;20020;-71
2023/05/30 01:43:51;;;;;;;9.93;2.67;;;12.60;72.40;;;;;;2095864;28;20385;-71
2023/05/30 01:44:54;;;;;;;10.95;2.92;;;12.60;72.20;;;;;;2094335;28;20048;-72
2023/05/30 01:46:10;;;;;;;8.57;2.80;;;12.60;72.70;;;;;;2092104;28;20074;-72
2023/05/30 01:47:48;;;;;;;11.27;3.13;;;12.60;73.10;;;;;;2092738;28;20062;-71
2023/05/30 01:48:59;;;;;;;14.07;2.80;;;12.50;73.80;;;;;;2090384;28;20603;-71
2023/05/30 01:50:10;;;;;;;9.90;3.00;;;12.50;73.70;;;;;;2089838;28;20472;-71
2023/05/30 01:51:18;;;;;;;10.95;2.92;;;12.50;73.60;;;;;;2090014;28;20036;-71
2023/05/30 01:52:24;;;;;;;15.75;3.78;;;12.40;73.40;;;;;;2090461;28;20052;-71
2023/05/30 01:53:41;;;;;;;9.70;3.03;;;12.40;73.90;;;;;;2090447;28;20024;-71
2023/05/30 01:54:45;;;;;;;7.15;2.67;;;12.40;75.30;;;;;;2091564;28;20024;-71
2023/05/30 01:55:49;;;;;;;8.07;2.55;;;12.40;74.10;;;;;;2089102;28;20021;-72
2023/05/30 01:56:58;;;;;;;11.20;3.33;;;12.40;73.60;;;;;;2090485;28;20056;-71
2023/05/30 01:57:59;;;;;;;9.82;2.90;;;12.40;74.10;;;;;;2090771;28;20032;-71
2023/05/30 01:59:05;;;;;;;7.57;2.47;;;12.30;74.50;;;;;;2093723;28;20484;-72
2023/05/30 02:00:06;;;;;;;9.05;2.30;;;12.30;74.60;;;;;;2091141;28;20082;-71
2023/05/30 02:01:08;;;;;;;12.30;2.25;;;12.30;74.70;;;;;;2092244;28;20054;-71
2023/05/30 02:02:09;;;;;;;10.63;3.03;;;12.40;74.70;;;;;;2093026;28;20021;-72
2023/05/30 02:03:10;;;;;;;7.28;2.33;;;12.30;75.20;;;;;;2092603;28;20033;-71
2023/05/30 02:04:11;;;;;;;7.50;3.10;;;12.30;75.20;;;;;;2085008;28;20021;-71
2023/05/30 02:05:12;;;;;;;12.02;3.30;;;12.30;75.40;;;;;;2088679;28;20025;-71
2023/05/30 02:06:12;;;;;;;10.13;2.80;;;12.30;75.50;;;;;;2090612;28;20107;-71
2023/05/30 02:07:13;;;;;;;12.05;2.90;;;12.30;75.60;;;;;;2092596;28;20090;-71
2023/05/30 02:08:13;;;;;;;8.38;2.60;;;12.30;75.30;;;;;;2089190;28;20112;-72
2023/05/30 02:09:14;;;;;;;11.02;2.72;;;12.30;75.90;;;;;;2090175;28;20029;-72
2023/05/30 02:10:15;;;;;;;10.57;2.58;;;12.30;75.90;;;;;;2093265;28;20017;-71
2023/05/30 02:11:16;;;;;;;11.80;3.08;;;12.30;76.30;;;;;;2093892;28;20024;-71
2023/05/30 02:12:16;;;;;;;7.38;2.60;;;12.50;76.40;;;;;;2091064;28;20020;-72
2023/05/30 02:13:17;;;;;;;12.75;3.33;;;12.20;76.10;;;;;;2092952;28;20024;-72
2023/05/30 02:14:17;;;;;;;10.90;2.80;;;12.20;76.10;;;;;;2094467;28;20025;-71
2023/05/30 02:15:18;;;;;;;9.30;2.95;;;12.20;76.00;;;;;;2093723;28;20032;-71
2023/05/30 02:16:18;;;;;;;8.23;2.40;;;12.20;75.90;;;;;;2091388;28;20024;-71
2023/05/30 02:17:20;;;;;;;8.70;2.70;;;12.20;76.50;;;;;;2093004;28;20031;-72
2023/05/30 02:18:21;;;;;;;13.13;3.47;;;12.20;76.80;;;;;;2090170;28;20112;-71
2023/05/30 02:19:22;;;;;;;10.20;2.83;;;12.20;76.50;;;;;;2091457;28;20031;-72
2023/05/30 02:20:22;;;;;;;13.50;3.28;;;12.10;76.90;;;;;;2090939;28;20059;-71
2023/05/30 02:21:23;;;;;;;10.80;2.80;;;12.20;77.00;;;;;;2091619;28;20025;-72
2023/05/30 02:22:23;;;;;;;9.73;2.85;;;12.10;77.60;;;;;;2093132;28;20023;-72
2023/05/30 02:23:24;;;;;;;8.07;2.53;;;12.10;78.40;;;;;;2091191;28;20063;-72
2023/05/30 02:24:24;;;;;;;7.72;2.38;;;12.10;78.60;;;;;;2092961;28;20028;-71
2023/05/30 02:25:26;;;;;;;14.77;3.03;;;12.10;78.20;;;;;;2090921;28;20029;-71
2023/05/30 02:26:26;;;;;;;9.85;2.97;;;12.10;78.10;;;;;;2090595;28;20075;-71
2023/05/30 02:27:27;;;;;;;11.48;2.58;;;12.10;78.70;;;;;;2092632;28;20598;-72
2023/05/30 02:28:28;;;;;;;13.77;4.35;;;12.10;78.70;;;;;;2090378;28;20107;-72
2023/05/30 02:29:28;;;;;;;7.70;2.65;;;12.10;79.10;;;;;;2089649;28;20036;-72
2023/05/30 02:30:29;;;;;;;14.18;3.08;;;12.00;78.70;;;;;;2091575;28;20028;-71
2023/05/30 02:31:29;;;;;;;9.23;2.78;;;12.10;78.40;;;;;;2091126;28;20032;-72
2023/05/30 02:32:30;;;;;;;9.60;3.05;;;12.00;79.10;;;;;;2091392;28;20055;-72
2023/05/30 02:33:31;;;;;;;10.15;3.10;;;12.00;79.90;;;;;;2091729;28;20032;-72
2023/05/30 02:34:31;;;;;;;9.55;2.88;;;12.00;80.10;;;;;;2090646;28;20109;-72
2023/05/30 02:35:32;;;;;;;9.98;3.08;;;12.00;80.00;;;;;;2091247;28;20060;-71
2023/05/30 02:36:32;;;;;;;7.82;2.30;;;12.00;79.90;;;;;;2091234;28;20052;-71
2023/05/30 02:37:33;;;;;;;7.65;2.78;;;12.00;80.20;;;;;;2092015;28;20056;-72
2023/05/30 02:38:34;;;;;;;11.02;2.97;;;12.00;79.70;;;;;;2091772;28;20484;-71
2023/05/30 02:39:34;;;;;;;8.57;2.67;;;12.00;79.20;;;;;;2088834;28;20024;-71
2023/05/30 02:40:35;;;;;;;10.48;3.90;;;12.00;79.60;;;;;;2092222;28;20016;-71
2023/05/30 02:41:37;;;;;;;8.63;2.80;;;12.00;80.20;;;;;;2091839;28;20027;-72
2023/05/30 02:42:38;;;;;;;10.65;2.90;;;12.00;81.10;;;;;;2090470;28;20169;-71
2023/05/30 02:43:41;;;;;;;10.70;2.85;;;12.00;81.00;;;;;;2090811;28;20020;-71
2023/05/30 02:44:42;;;;;;;9.52;3.03;;;12.00;82.40;;;;;;2092902;28;20502;-72
2023/05/30 02:45:42;;;;;;;10.35;3.17;;;12.00;82.90;;;;;;2087970;28;20032;-71
2023/05/30 02:46:43;;;;;;;12.65;3.60;;;11.90;83.60;;;;;;2090977;28;20037;-72
2023/05/30 02:47:43;;;;;;;11.48;3.25;;;11.90;84.20;;;;;;2091874;28;20028;-72
2023/05/30 02:48:44;;;;;;;7.60;2.78;;;11.90;83.90;;;;;;2092164;28;20033;-72
2023/05/30 02:49:46;;;;;;;10.38;3.03;;;11.90;83.20;;;;;;2093049;28;20525;-71
2023/05/30 02:50:47;;;;;;;6.47;2.85;;;11.90;83.40;;;;;;2093939;28;20407;-71
2023/05/30 02:51:49;;;;;;;12.32;3.15;;;11.90;83.40;;;;;;2089137;28;20025;-71
2023/05/30 02:52:50;;;;;;;10.77;3.20;;;11.90;84.30;;;;;;2088733;28;20100;-72
2023/05/30 02:53:50;;;;;;;8.50;3.15;;;11.80;85.50;;;;;;2093698;28;20025;-72
2023/05/30 02:54:51;;;;;;;13.48;3.10;;;11.90;85.40;;;;;;2091075;28;20032;-72
2023/05/30 02:55:51;;;;;;;11.23;2.50;;;11.90;86.20;;;;;;2091553;28;20029;-72
2023/05/30 02:56:52;;;;;;;11.57;3.67;;;11.90;86.40;;;;;;2091663;28;20029;-72
2023/05/30 02:57:52;;;;;;;9.77;3.20;;;11.90;87.00;;;;;;2092408;28;20013;-72
2023/05/30 02:58:54;;;;;;;9.13;3.78;;;11.90;88.00;;;;;;2092057;28;20087;-72
2023/05/30 02:59:54;;;;;;;12.35;2.88;;;11.80;87.30;;;;;;2097862;28;20496;-72
2023/05/30 03:00:55;;;;;;;23.13;4.32;;;11.80;88.10;;;;;;2101037;28;20498;-72
2023/05/30 03:01:55;;;;;;;13.30;3.65;;;11.80;88.90;;;;;;2090897;28;20743;-72
2023/05/30 03:02:57;;;;;;;9.40;3.78;;;11.80;89.50;;;;;;2093897;28;20381;-71
2023/05/30 03:03:58;;;;;;;10.88;2.92;;;11.80;90.20;;;;;;2089148;28;20025;-71
2023/05/30 03:04:58;;;;;;;9.95;2.40;;;11.80;90.40;;;;;;2091525;28;20086;-72
2023/05/30 03:05:59;;;;;;;12.90;3.70;;;11.80;90.20;;;;;;2092672;28;20158;-72
2023/05/30 03:06:59;;;;;;;10.48;2.65;;;11.80;90.50;;;;;;2092863;28;20035;-72
2023/05/30 03:08:01;;;;;;;8.75;2.88;;;11.80;90.40;;;;;;2094079;28;20020;-71
2023/05/30 03:09:01;;;;;;;9.55;2.83;;;11.80;90.60;;;;;;2096807;28;20020;-71
2023/05/30 03:10:06;;;;;;;12.25;3.05;;;11.80;91.10;;;;;;2091213;28;20025;-72
2023/05/30 03:11:06;;;;;;;12.45;3.13;;;11.80;91.50;;;;;;2092320;28;20509;-71
2023/05/30 03:12:07;;;;;;;10.77;3.20;;;11.80;92.40;;;;;;2093389;28;20074;-72
2023/05/30 03:13:08;;;;;;;12.07;3.67;;;11.80;92.00;;;;;;2093533;28;20067;-71
2023/05/30 03:14:09;;;;;;;13.32;3.50;;;11.80;92.50;;;;;;2095435;28;20531;-71
2023/05/30 03:15:10;;;;;;;13.95;3.35;;;11.80;93.50;;;;;;2086331;28;20159;-71
2023/05/30 03:16:10;;;;;;;14.02;3.50;;;11.80;94.20;;;;;;2094881;28;20020;-72
2023/05/30 03:17:11;;;;;;;11.38;3.72;;;11.80;94.90;;;;;;2096096;28;20044;-71
2023/05/30 03:18:11;;;;;;;17.35;3.72;;;11.80;95.60;;;;;;2093788;28;20071;-71
2023/05/30 03:19:12;;;;;;;13.95;3.35;;;11.80;96.20;;;;;;2092874;28;20032;-72
2023/05/30 03:20:13;;;;;;;18.13;3.83;;;11.70;96.50;;;;;;2091491;28;20160;-71
2023/05/30 03:21:15;;;;;;;13.88;4.30;;;11.70;96.70;;;;;;2093807;28;20032;-72
2023/05/30 03:22:15;;;;;;;16.30;4.22;;;11.80;97.50;;;;;;2092788;28;20017;-71
2023/05/30 03:23:16;;;;;;;13.65;3.88;;;11.70;98.10;;;;;;2093121;28;20013;-71
2023/05/30 03:24:17;;;;;;;13.82;3.70;;;11.70;98.50;;;;;;2093002;28;20020;-72
2023/05/30 03:25:17;;;;;;;16.27;4.03;;;11.70;99.20;;;;;;2093078;28;20028;-72
2023/05/30 03:26:18;;;;;;;13.82;4.00;;;11.70;99.70;;;;;;2090645;28;20024;-71
2023/05/30 03:27:18;;;;;;;14.55;3.50;;;11.80;99.90;;;;;;2092115;28;20037;-72
2023/05/30 03:28:19;;;;;;;10.23;3.17;;;11.80;99.90;;;;;;2091020;28;20024;-72
2023/05/30 03:29:19;;;;;;;12.60;3.33;;;11.70;99.90;;;;;;2092466;28;20673;-72
2023/05/30 03:30:22;;;;;;;9.27;3.38;;;11.70;99.90;;;;;;2090684;28;20451;-71
2023/05/30 03:31:22;;;;;;;14.40;3.97;;;11.70;99.90;;;;;;2094602;28;20036;-72
2023/05/30 03:32:23;;;;;;;14.02;4.55;;;11.80;99.90;;;;;;2090939;28;20025;-72
2023/05/30 03:33:24;;;;;;;17.25;3.75;;;11.80;99.90;;;;;;2091727;28;20031;-72
2023/05/30 03:34:25;;;;;;;15.23;4.10;;;11.80;99.90;;;;;;2091354;28;20515;-72
2023/05/30 03:35:25;;;;;;;15.93;4.03;;;11.80;99.90;;;;;;2091927;28;20017;-72
2023/05/30 03:36:27;;;;;;;17.58;3.63;;;11.80;99.90;;;;;;2093250;28;20082;-72
2023/05/30 03:37:27;;;;;;;15.65;3.83;;;11.70;99.90;;;;;;2090762;28;20024;-72
2023/05/30 03:38:28;;;;;;;9.95;3.50;;;11.80;99.90;;;;;;2093030;28;20040;-72
2023/05/30 03:39:28;;;;;;;17.40;4.22;;;11.80;99.90;;;;;;2093246;28;20771;-72
2023/05/30 03:40:29;;;;;;;16.20;4.28;;;11.80;99.90;;;;;;2094073;28;20033;-72
2023/05/30 03:41:29;;;;;;;19.45;3.85;;;11.80;99.90;;;;;;2092020;28;20106;-72
2023/05/30 03:42:30;;;;;;;12.48;3.53;;;11.80;99.90;;;;;;2095264;28;20078;-72
2023/05/30 03:43:30;;;;;;;16.27;4.85;;;11.80;99.90;;;;;;2093109;28;20681;-72
2023/05/30 03:44:31;;;;;;;13.32;3.80;;;11.80;99.90;;;;;;2091621;28;20084;-72
2023/05/30 03:45:32;;;;;;;16.15;3.90;;;11.80;99.90;;;;;;2092493;28;20039;-72
2023/05/30 03:46:32;;;;;;;12.73;3.63;;;11.80;99.90;;;;;;2092790;28;20024;-72
2023/05/30 03:47:33;;;;;;;14.63;3.78;;;11.80;99.90;;;;;;2091820;28;20029;-72
2023/05/30 03:48:33;;;;;;;15.18;4.00;;;11.90;99.90;;;;;;2093099;28;20025;-72
2023/05/30 03:49:34;;;;;;;14.00;3.78;;;11.90;99.90;;;;;;2092119;28;20032;-71
2023/05/30 03:50:34;;;;;;;14.07;4.00;;;11.90;99.90;;;;;;2091631;28;20044;-72
2023/05/30 03:51:36;;;;;;;11.75;3.60;;;11.90;99.90;;;;;;2091392;28;20056;-71
2023/05/30 03:52:36;;;;;;;15.43;4.07;;;11.90;99.90;;;;;;2091911;28;20037;-71
2023/05/30 03:53:37;;;;;;;12.82;3.25;;;11.90;99.90;;;;;;2096626;28;20021;-72
2023/05/30 03:54:37;;;;;;;16.50;3.90;;;11.90;99.90;;;;;;2090084;28;20024;-71
2023/05/30 03:55:39;;;;;;;14.45;4.32;;;11.90;99.90;;;;;;2091904;28;20492;-72
2023/05/30 03:56:39;;;;;;;11.80;3.60;;;11.90;99.90;;;;;;2093001;28;20036;-71
2023/05/30 03:57:40;;;;;;;11.38;3.75;;;11.90;99.90;;;;;;2094452;28;20032;-72
2023/05/30 03:58:40;;;;;;;13.40;4.57;;;12.00;99.90;;;;;;2091127;28;20029;-72
2023/05/30 03:59:41;;;;;;;15.95;4.47;;;11.90;99.90;;;;;;2093700;28;20441;-71
2023/05/30 04:00:41;;;;;;;14.73;4.15;;;12.00;99.90;;;;;;2091928;28;20103;-71
2023/05/30 04:01:42;;;;;;;20.67;4.38;;;12.00;99.90;;;;;;2092727;28;20031;-72
2023/05/30 04:02:42;;;;;;;13.02;3.90;;;12.00;99.90;;;;;;2093198;28;20025;-71
2023/05/30 04:03:43;;;;;;;13.00;3.88;;;11.90;99.90;;;;;;2092816;28;20044;-71
2023/05/30 04:04:44;;;;;;;16.45;4.05;;;11.90;99.90;;;;;;2094037;28;20585;-72
2023/05/30 04:05:47;;;;;;;17.58;4.55;;;11.90;99.90;;;;;;2092666;28;20116;-71
2023/05/30 04:06:47;;;;;;;16.60;4.32;;;12.00;99.90;;;;;;2093301;28;20729;-71
2023/05/30 04:07:49;;;;;;;12.73;4.43;;;12.00;99.90;;;;;;2091266;28;20435;-72
2023/05/30 04:08:49;;;;;;;10.75;3.70;;;12.00;99.90;;;;;;2094867;28;20023;-72
2023/05/30 04:09:51;;;;;;;12.25;4.40;;;12.00;99.90;;;;;;2090456;28;20593;-71
2023/05/30 04:10:52;;;;;;;11.35;3.85;;;12.00;99.90;;;;;;2091279;28;20526;-72
2023/05/30 04:11:53;;;;;;;15.15;4.28;;;12.00;99.90;;;;;;2091754;28;20384;-72
2023/05/30 04:12:53;;;;;;;16.65;5.28;;;12.00;99.90;;;;;;2090933;28;20056;-72
2023/05/30 04:13:54;;;;;;;15.07;4.95;;;12.00;99.90;;;;;;2092172;28;20103;-72
2023/05/30 04:14:54;;;;;;;17.55;4.20;;;12.00;99.90;;;;;;2091714;28;20028;-71
2023/05/30 04:15:55;;;;;;;12.75;4.22;;;12.00;99.90;;;;;;2090143;28;20037;-71
2023/05/30 04:16:55;;;;;;;14.65;4.47;;;12.10;99.90;;;;;;2091471;28;20131;-71
2023/05/30 04:17:57;;;;;;;15.55;4.70;;;12.10;99.90;;;;;;2092242;28;20029;-72
2023/05/30 04:18:58;;;;;;;13.70;4.63;;;12.10;99.90;;;;;;2093532;28;20503;-72
2023/05/30 04:19:59;;;;;;;14.60;4.72;;;12.10;99.90;;;;;;2091989;28;20103;-71
2023/05/30 04:20:59;;;;;;;21.30;5.47;;;12.10;99.90;;;;;;2093002;28;20051;-72
2023/05/30 04:22:00;;;;;;;15.55;4.38;;;12.10;99.90;;;;;;2092699;28;20643;-72
2023/05/30 04:23:02;;;;;;;14.50;4.18;;;12.10;99.90;;;;;;2095079;28;20048;-72
2023/05/30 04:24:03;;;;;;;19.15;4.72;;;12.10;99.90;;;;;;2093957;28;20024;-71
2023/05/30 04:25:05;;;;;;;16.27;4.82;;;12.20;99.90;;;;;;2090919;28;20384;-72
2023/05/30 04:26:09;;;;;;;18.58;4.72;;;12.20;99.90;;;;;;2091108;28;20070;-71
2023/05/30 04:27:13;;;;;;;18.10;5.30;;;12.20;99.90;;;;;;2094693;28;20037;-72
2023/05/30 04:28:16;;;;;;;13.30;4.88;;;12.20;99.90;;;;;;2090098;28;20388;-72
2023/05/30 04:29:20;;;;;;;19.67;4.28;;;12.20;99.90;;;;;;2091833;28;20064;-71
2023/05/30 04:30:20;;;;;;;15.50;5.00;;;12.20;99.90;;;;;;2091781;28;20086;-72
2023/05/30 04:31:22;;;;;;;16.85;5.13;;;12.20;99.90;;;;;;2091238;28;20089;-71
2023/05/30 04:32:23;;;;;;;16.55;4.43;;;12.20;99.90;;;;;;2093077;28;20570;-72
2023/05/30 04:33:24;;;;;;;16.90;4.30;;;12.20;99.90;;;;;;2091848;28;20464;-72
2023/05/30 04:34:25;;;;;;;18.90;4.75;;;12.30;99.90;;;;;;2091417;28;20480;-72
2023/05/30 04:35:26;;;;;;;12.18;4.53;;;12.20;99.90;;;;;;2093572;28;20373;-72
2023/05/30 04:36:27;;;;;;;15.25;4.63;;;12.30;99.90;;;;;;2094409;28;20078;-72
2023/05/30 04:37:27;;;;;;;16.92;4.88;;;12.20;99.90;;;;;;2092773;28;20415;-72
2023/05/30 04:38:28;;;;;;;15.85;4.90;;;12.20;99.90;;;;;;2094732;28;20017;-71
2023/05/30 04:39:29;;;;;;;10.77;4.60;;;12.30;99.90;;;;;;2092990;28;20025;-71
2023/05/30 04:40:29;;;;;;;15.90;4.70;;;12.30;99.90;;;;;;2091260;28;20104;-72
2023/05/30 04:41:30;;;;;;;11.30;4.25;;;12.30;99.90;;;;;;2092467;28;20024;-71
2023/05/30 04:42:33;;;;;;;14.98;4.63;;;12.30;99.90;;;;;;2091729;28;20025;-71
2023/05/30 04:43:34;;;;;;;18.80;5.10;;;12.30;99.90;;;;;;2091572;28;20017;-72
2023/05/30 04:44:37;;;;;;;13.75;4.93;;;12.30;99.90;;;;;;2090775;28;20027;-72
2023/05/30 04:45:38;;;;;;;19.58;4.63;;;12.30;99.90;;;;;;2090528;28;20143;-72
2023/05/30 04:46:40;;;;;;;14.75;5.18;;;12.40;99.90;;;;;;2090091;28;20051;-71
2023/05/30 04:47:40;;;;;;;16.95;5.03;;;12.40;99.90;;;;;;2091258;28;20139;-71
2023/05/30 04:48:41;;;;;;;15.75;4.82;;;12.40;99.90;;;;;;2092781;28;20016;-72
2023/05/30 04:49:41;;;;;;;16.60;5.15;;;12.40;99.90;;;;;;2092917;28;20075;-71
2023/05/30 04:50:46;;;;;;;12.32;5.10;;;12.40;99.90;;;;;;2093118;28;20069;-72
2023/05/30 04:51:46;;;;;;;19.35;5.10;;;12.40;99.90;;;;;;2091868;28;20366;-71
2023/05/30 04:52:47;;;;;;;17.75;4.60;;;12.40;99.90;;;;;;2092658;28;20047;-71
2023/05/30 04:53:49;;;;;;;15.15;5.05;;;12.50;99.90;;;;;;2092096;28;20028;-71
2023/05/30 04:54:49;;;;;;;11.60;5.15;;;12.50;99.90;;;;;;2089626;28;20112;-71
2023/05/30 04:55:50;;;;;;;13.52;5.15;;;12.50;99.90;;;;;;2093804;28;20029;-71
2023/05/30 04:56:50;;;;;;;13.77;4.53;;;12.50;99.90;;;;;;2090130;28;20021;-71
2023/05/30 04:57:51;;;;;;;11.90;3.95;;;12.50;99.90;;;;;;2089876;28;20591;-72
2023/05/30 04:58:52;;;;;;;21.50;6.10;;;12.50;99.90;;;;;;2090155;28;20017;-71
2023/05/30 04:59:55;;;;;;;15.30;5.68;;;12.50;99.90;;;;;;2091026;28;20049;-72
2023/05/30 05:00:58;;;;;;;20.52;5.10;;;12.60;99.90;;;;;;2092872;28;20032;-72
2023/05/30 05:01:59;;;;;;;15.20;5.65;;;12.60;99.90;;;;;;2094203;28;20043;-73
2023/05/30 05:02:59;;;;;;;17.33;4.82;;;12.60;99.90;;;;;;2093639;28;20027;-71
2023/05/30 05:04:01;;;;;;;18.23;5.35;;;12.60;99.90;;;;;;2093430;28;20058;-71
2023/05/30 05:05:01;;;;;;;18.65;4.93;;;12.60;99.90;;;;;;2093649;28;20025;-71
2023/05/30 05:06:02;;;;;;;12.82;4.80;;;12.60;99.90;;;;;;2090551;28;20108;-73
2023/05/30 05:07:02;;;;;;;15.75;4.53;;;12.60;99.90;;;;;;2094446;28;20031;-71
2023/05/30 05:08:03;;;;;;;17.15;4.93;;;12.60;99.90;;;;;;2092242;28;20035;-73
2023/05/30 05:09:03;;;;;;;15.20;5.00;;;12.60;99.90;;;;;;2091928;28;20046;-71
2023/05/30 05:10:04;;;;;;;18.95;4.70;;;12.60;99.90;;;;;;2090215;28;20082;-71
2023/05/30 05:11:06;;;;;;;16.33;4.15;;;12.60;99.90;;;;;;2091526;28;20555;-71
2023/05/30 05:12:07;;;;;;;15.05;4.78;;;12.70;99.90;;;;;;2091509;28;20044;-71
2023/05/30 05:13:08;;;;;;;14.80;4.57;;;12.70;99.90;;;;;;2091648;28;20135;-71
2023/05/30 05:14:08;;;;;;;15.02;5.00;;;12.70;99.90;;;;;;2091144;28;20039;-73
2023/05/30 05:15:09;;;;;;;19.10;5.15;;;12.70;99.90;;;;;;2093659;28;20047;-73
2023/05/30 05:16:10;;;;;;;14.02;4.55;;;12.70;99.90;;;;;;2093541;28;20099;-73
2023/05/30 05:17:10;;;;;;;15.82;4.38;;;12.70;99.90;;;;;;2093015;28;20036;-73
2023/05/30 05:18:11;;;;;;;12.77;5.18;;;12.80;99.90;;;;;;2093309;28;20025;-73
2023/05/30 05:19:11;;;;;;;13.60;4.38;;;12.80;99.90;;;;;;2092783;28;20052;-73
2023/05/30 05:20:12;;;;;;;15.88;5.07;;;12.80;99.90;;;;;;2091127;28;20031;-73
2023/05/30 05:21:14;;;;;;;13.52;4.45;;;12.80;99.90;;;;;;2092539;28;20054;-73